Terminal Aerodrome Forecast
Issued by NWS Grand Forks, ND

Home | Current Version | Previous Version | Graphics & Text | Print | Product List | Glossary On
Versions: 1 2 3 4 5 6 7 8 9 10 11 12 13 14 15 16 17
346
FTUS43 KFGF 252340
TAFGFK
TAF
KGFK 252340Z 2600/2624 28013G30KT P6SM SCT090
     FM260200 26008KT P6SM FEW080
     FM260600 28006KT P6SM FEW250
     FM261000 VRB04KT P6SM FEW250
     FM261600 28009KT P6SM SKC=

USA.gov is the U.S. government's official web portal to all federal, state and local government web resources and services.